sensor_id;sensor_type;location;lat;lon;timestamp;P1;durP1;ratioP1;P2;durP2;ratioP2
55718;SDS011;41623;46.104;19.656;2023-03-01T00:00:38;14.07;;;4.35;;
55718;SDS011;41623;46.104;19.656;2023-03-01T00:03:04;11.90;;;5.03;;
55718;SDS011;41623;46.104;19.656;2023-03-01T00:05:30;5.13;;;3.53;;
55718;SDS011;41623;46.104;19.656;2023-03-01T00:07:57;5.13;;;3.45;;
55718;SDS011;41623;46.104;19.656;2023-03-01T00:10:23;11.88;;;4.68;;
55718;SDS011;41623;46.104;19.656;2023-03-01T00:12:49;10.82;;;4.20;;
55718;SDS011;41623;46.104;19.656;2023-03-01T00:15:15;6.15;;;3.60;;
55718;SDS011;41623;46.104;19.656;2023-03-01T00:17:41;9.88;;;4.07;;
55718;SDS011;41623;46.104;19.656;2023-03-01T00:20:07;7.18;;;3.88;;
55718;SDS011;41623;46.104;19.656;2023-03-01T00:22:35;6.78;;;3.35;;
55718;SDS011;41623;46.104;19.656;2023-03-01T00:25:01;7.35;;;4.15;;
55718;SDS011;41623;46.104;19.656;2023-03-01T00:27:27;7.60;;;3.60;;
55718;SDS011;41623;46.104;19.656;2023-03-01T00:29:53;4.97;;;3.30;;
55718;SDS011;41623;46.104;19.656;2023-03-01T00:32:19;8.57;;;4.20;;
55718;SDS011;41623;46.104;19.656;2023-03-01T00:34:45;9.63;;;4.35;;
55718;SDS011;41623;46.104;19.656;2023-03-01T00:37:19;12.90;;;4.13;;
55718;SDS011;41623;46.104;19.656;2023-03-01T00:39:45;11.40;;;3.78;;
55718;SDS011;41623;46.104;19.656;2023-03-01T00:42:11;7.18;;;3.10;;
55718;SDS011;41623;46.104;19.656;2023-03-01T00:44:37;4.03;;;3.10;;
55718;SDS011;41623;46.104;19.656;2023-03-01T00:47:03;5.93;;;3.28;;
55718;SDS011;41623;46.104;19.656;2023-03-01T00:49:29;4.82;;;3.45;;
55718;SDS011;41623;46.104;19.656;2023-03-01T00:51:56;6.38;;;3.35;;
55718;SDS011;41623;46.104;19.656;2023-03-01T00:54:22;4.22;;;2.95;;
55718;SDS011;41623;46.104;19.656;2023-03-01T00:56:48;6.22;;;3.30;;
55718;SDS011;41623;46.104;19.656;2023-03-01T00:59:14;12.00;;;4.47;;
55718;SDS011;41623;46.104;19.656;2023-03-01T01:01:40;7.47;;;3.47;;
55718;SDS011;41623;46.104;19.656;2023-03-01T01:04:10;9.65;;;3.75;;
55718;SDS011;41623;46.104;19.656;2023-03-01T01:06:40;5.82;;;3.97;;
55718;SDS011;41623;46.104;19.656;2023-03-01T01:09:07;5.18;;;3.53;;
55718;SDS011;41623;46.104;19.656;2023-03-01T01:11:34;6.88;;;3.15;;
55718;SDS011;41623;46.104;19.656;2023-03-01T01:14:01;7.55;;;3.40;;
55718;SDS011;41623;46.104;19.656;2023-03-01T01:16:28;5.22;;;3.58;;
55718;SDS011;41623;46.104;19.656;2023-03-01T01:18:54;7.00;;;3.83;;
55718;SDS011;41623;46.104;19.656;2023-03-01T01:21:22;6.80;;;2.90;;
55718;SDS011;41623;46.104;19.656;2023-03-01T01:23:48;8.63;;;3.58;;
55718;SDS011;41623;46.104;19.656;2023-03-01T01:26:18;7.45;;;3.83;;
55718;SDS011;41623;46.104;19.656;2023-03-01T01:28:44;6.43;;;3.95;;
55718;SDS011;41623;46.104;19.656;2023-03-01T01:31:10;7.90;;;3.85;;
55718;SDS011;41623;46.104;19.656;2023-03-01T01:33:37;6.22;;;3.67;;
55718;SDS011;41623;46.104;19.656;2023-03-01T01:36:04;10.48;;;3.80;;
55718;SDS011;41623;46.104;19.656;2023-03-01T01:38:30;7.50;;;3.00;;
55718;SDS011;41623;46.104;19.656;2023-03-01T01:40:56;8.98;;;4.07;;
55718;SDS011;41623;46.104;19.656;2023-03-01T01:43:24;5.43;;;3.42;;
55718;SDS011;41623;46.104;19.656;2023-03-01T01:45:50;3.85;;;3.10;;
55718;SDS011;41623;46.104;19.656;2023-03-01T01:48:19;9.40;;;4.18;;
55718;SDS011;41623;46.104;19.656;2023-03-01T01:50:45;6.18;;;3.20;;
55718;SDS011;41623;46.104;19.656;2023-03-01T01:53:15;8.30;;;3.88;;
55718;SDS011;41623;46.104;19.656;2023-03-01T01:55:44;7.30;;;3.70;;
55718;SDS011;41623;46.104;19.656;2023-03-01T01:58:11;7.47;;;3.33;;
55718;SDS011;41623;46.104;19.656;2023-03-01T02:00:39;3.00;;;2.55;;
55718;SDS011;41623;46.104;19.656;2023-03-01T02:03:13;7.00;;;3.58;;
55718;SDS011;41623;46.104;19.656;2023-03-01T02:08:08;6.68;;;3.58;;
55718;SDS011;41623;46.104;19.656;2023-03-01T02:10:36;6.80;;;3.00;;
55718;SDS011;41623;46.104;19.656;2023-03-01T02:13:03;4.15;;;2.65;;
55718;SDS011;41623;46.104;19.656;2023-03-01T02:15:33;5.97;;;2.67;;
55718;SDS011;41623;46.104;19.656;2023-03-01T02:17:59;5.68;;;3.42;;
55718;SDS011;41623;46.104;19.656;2023-03-01T02:20:39;4.65;;;2.78;;
55718;SDS011;41623;46.104;19.656;2023-03-01T02:23:10;2.88;;;2.22;;
55718;SDS011;41623;46.104;19.656;2023-03-01T02:25:40;10.05;;;3.90;;
55718;SDS011;41623;46.104;19.656;2023-03-01T02:30:43;5.45;;;2.78;;
55718;SDS011;41623;46.104;19.656;2023-03-01T02:33:29;2.25;;;1.98;;
55718;SDS011;41623;46.104;19.656;2023-03-01T02:36:00;5.43;;;2.83;;
55718;SDS011;41623;46.104;19.656;2023-03-01T02:38:26;6.18;;;3.63;;
55718;SDS011;41623;46.104;19.656;2023-03-01T02:40:53;11.02;;;3.33;;
55718;SDS011;41623;46.104;19.656;2023-03-01T02:43:20;3.97;;;2.38;;
55718;SDS011;41623;46.104;19.656;2023-03-01T02:45:50;6.18;;;4.15;;
55718;SDS011;41623;46.104;19.656;2023-03-01T02:48:18;6.97;;;3.50;;
55718;SDS011;41623;46.104;19.656;2023-03-01T02:55:39;6.32;;;3.42;;
55718;SDS011;41623;46.104;19.656;2023-03-01T02:58:05;6.18;;;4.25;;
55718;SDS011;41623;46.104;19.656;2023-03-01T03:00:38;5.55;;;3.03;;
55718;SDS011;41623;46.104;19.656;2023-03-01T03:03:10;6.63;;;3.53;;
55718;SDS011;41623;46.104;19.656;2023-03-01T03:05:38;7.53;;;3.60;;
55718;SDS011;41623;46.104;19.656;2023-03-01T03:08:04;5.35;;;3.00;;
55718;SDS011;41623;46.104;19.656;2023-03-01T03:10:33;7.82;;;4.20;;
55718;SDS011;41623;46.104;19.656;2023-03-01T03:13:01;4.35;;;2.63;;
55718;SDS011;41623;46.104;19.656;2023-03-01T03:15:28;7.32;;;3.65;;
55718;SDS011;41623;46.104;19.656;2023-03-01T03:17:55;5.10;;;2.90;;
55718;SDS011;41623;46.104;19.656;2023-03-01T03:20:22;8.40;;;3.97;;
55718;SDS011;41623;46.104;19.656;2023-03-01T03:22:50;6.97;;;3.70;;
55718;SDS011;41623;46.104;19.656;2023-03-01T03:25:17;9.68;;;3.75;;
55718;SDS011;41623;46.104;19.656;2023-03-01T03:27:44;4.15;;;3.03;;
55718;SDS011;41623;46.104;19.656;2023-03-01T03:30:12;3.53;;;2.60;;
55718;SDS011;41623;46.104;19.656;2023-03-01T03:32:42;4.95;;;2.78;;
55718;SDS011;41623;46.104;19.656;2023-03-01T03:35:18;2.55;;;2.28;;
55718;SDS011;41623;46.104;19.656;2023-03-01T03:37:44;5.03;;;2.97;;
55718;SDS011;41623;46.104;19.656;2023-03-01T03:43:00;2.35;;;1.77;;
55718;SDS011;41623;46.104;19.656;2023-03-01T03:45:26;2.72;;;1.95;;
55718;SDS011;41623;46.104;19.656;2023-03-01T03:47:53;4.20;;;2.50;;
55718;SDS011;41623;46.104;19.656;2023-03-01T03:50:19;3.83;;;2.90;;
55718;SDS011;41623;46.104;19.656;2023-03-01T03:52:45;6.60;;;3.03;;
55718;SDS011;41623;46.104;19.656;2023-03-01T03:55:11;5.70;;;2.63;;
55718;SDS011;41623;46.104;19.656;2023-03-01T03:57:38;7.03;;;2.92;;
55718;SDS011;41623;46.104;19.656;2023-03-01T04:00:05;7.40;;;3.50;;
55718;SDS011;41623;46.104;19.656;2023-03-01T04:02:38;10.68;;;3.75;;
55718;SDS011;41623;46.104;19.656;2023-03-01T04:05:04;7.15;;;3.35;;
55718;SDS011;41623;46.104;19.656;2023-03-01T04:07:30;6.38;;;3.78;;
55718;SDS011;41623;46.104;19.656;2023-03-01T04:09:56;4.68;;;2.42;;
55718;SDS011;41623;46.104;19.656;2023-03-01T04:12:22;5.68;;;3.88;;
55718;SDS011;41623;46.104;19.656;2023-03-01T04:14:48;4.25;;;2.55;;
55718;SDS011;41623;46.104;19.656;2023-03-01T04:17:14;2.90;;;2.38;;
55718;SDS011;41623;46.104;19.656;2023-03-01T04:19:40;7.38;;;3.30;;
55718;SDS011;41623;46.104;19.656;2023-03-01T04:22:09;6.15;;;3.97;;
55718;SDS011;41623;46.104;19.656;2023-03-01T04:24:36;6.88;;;4.47;;
55718;SDS011;41623;46.104;19.656;2023-03-01T04:27:02;5.15;;;2.70;;
55718;SDS011;41623;46.104;19.656;2023-03-01T04:29:28;3.28;;;2.65;;
55718;SDS011;41623;46.104;19.656;2023-03-01T04:31:54;7.18;;;3.38;;
55718;SDS011;41623;46.104;19.656;2023-03-01T04:34:20;3.42;;;2.88;;
55718;SDS011;41623;46.104;19.656;2023-03-01T04:36:46;4.80;;;2.95;;
55718;SDS011;41623;46.104;19.656;2023-03-01T04:39:12;4.88;;;2.45;;
55718;SDS011;41623;46.104;19.656;2023-03-01T04:41:38;3.05;;;2.28;;
55718;SDS011;41623;46.104;19.656;2023-03-01T04:44:05;5.88;;;2.45;;
55718;SDS011;41623;46.104;19.656;2023-03-01T04:46:32;3.53;;;2.45;;
55718;SDS011;41623;46.104;19.656;2023-03-01T04:48:58;8.13;;;2.83;;
55718;SDS011;41623;46.104;19.656;2023-03-01T04:51:24;5.72;;;3.17;;
55718;SDS011;41623;46.104;19.656;2023-03-01T04:53:50;5.93;;;3.40;;
55718;SDS011;41623;46.104;19.656;2023-03-01T04:56:16;4.93;;;3.25;;
55718;SDS011;41623;46.104;19.656;2023-03-01T04:58:48;4.07;;;2.65;;
55718;SDS011;41623;46.104;19.656;2023-03-01T05:01:18;5.72;;;3.28;;
55718;SDS011;41623;46.104;19.656;2023-03-01T05:03:45;2.55;;;1.85;;
55718;SDS011;41623;46.104;19.656;2023-03-01T05:06:12;8.10;;;3.33;;
55718;SDS011;41623;46.104;19.656;2023-03-01T05:08:38;3.67;;;3.20;;
55718;SDS011;41623;46.104;19.656;2023-03-01T05:11:05;5.55;;;3.25;;
55718;SDS011;41623;46.104;19.656;2023-03-01T05:13:33;7.30;;;4.63;;
55718;SDS011;41623;46.104;19.656;2023-03-01T05:16:00;5.70;;;3.58;;
55718;SDS011;41623;46.104;19.656;2023-03-01T05:18:27;5.90;;;3.47;;
55718;SDS011;41623;46.104;19.656;2023-03-01T05:20:55;5.68;;;3.58;;
55718;SDS011;41623;46.104;19.656;2023-03-01T05:23:23;5.32;;;3.33;;
55718;SDS011;41623;46.104;19.656;2023-03-01T05:25:49;5.28;;;3.55;;
55718;SDS011;41623;46.104;19.656;2023-03-01T05:28:17;4.40;;;2.45;;
55718;SDS011;41623;46.104;19.656;2023-03-01T05:30:44;6.53;;;4.40;;
55718;SDS011;41623;46.104;19.656;2023-03-01T05:33:10;4.80;;;3.78;;
55718;SDS011;41623;46.104;19.656;2023-03-01T05:35:42;11.77;;;4.47;;
55718;SDS011;41623;46.104;19.656;2023-03-01T05:38:12;7.75;;;4.28;;
55718;SDS011;41623;46.104;19.656;2023-03-01T05:40:38;8.00;;;4.38;;
55718;SDS011;41623;46.104;19.656;2023-03-01T05:43:05;14.02;;;4.85;;
55718;SDS011;41623;46.104;19.656;2023-03-01T05:45:31;7.05;;;4.40;;
55718;SDS011;41623;46.104;19.656;2023-03-01T05:47:58;7.97;;;4.07;;
55718;SDS011;41623;46.104;19.656;2023-03-01T05:50:28;11.85;;;4.90;;
55718;SDS011;41623;46.104;19.656;2023-03-01T05:52:58;13.85;;;6.47;;
55718;SDS011;41623;46.104;19.656;2023-03-01T05:55:24;5.95;;;3.47;;
55718;SDS011;41623;46.104;19.656;2023-03-01T05:57:50;14.23;;;4.88;;
55718;SDS011;41623;46.104;19.656;2023-03-01T06:00:17;5.75;;;3.55;;
55718;SDS011;41623;46.104;19.656;2023-03-01T06:02:44;6.70;;;3.60;;
55718;SDS011;41623;46.104;19.656;2023-03-01T06:05:11;12.07;;;4.28;;
55718;SDS011;41623;46.104;19.656;2023-03-01T06:07:37;9.15;;;4.53;;
55718;SDS011;41623;46.104;19.656;2023-03-01T06:10:04;13.38;;;4.75;;
55718;SDS011;41623;46.104;19.656;2023-03-01T06:12:33;6.03;;;3.72;;
55718;SDS011;41623;46.104;19.656;2023-03-01T06:15:00;7.40;;;3.58;;
55718;SDS011;41623;46.104;19.656;2023-03-01T06:17:26;6.68;;;4.60;;
55718;SDS011;41623;46.104;19.656;2023-03-01T06:19:54;11.15;;;5.22;;
55718;SDS011;41623;46.104;19.656;2023-03-01T06:22:20;10.60;;;5.38;;
55718;SDS011;41623;46.104;19.656;2023-03-01T06:24:46;9.93;;;4.07;;
55718;SDS011;41623;46.104;19.656;2023-03-01T06:27:12;5.50;;;3.83;;
55718;SDS011;41623;46.104;19.656;2023-03-01T06:29:38;10.30;;;5.65;;
55718;SDS011;41623;46.104;19.656;2023-03-01T06:32:04;6.20;;;3.72;;
55718;SDS011;41623;46.104;19.656;2023-03-01T06:34:30;5.88;;;4.22;;
55718;SDS011;41623;46.104;19.656;2023-03-01T06:36:57;7.07;;;4.38;;
55718;SDS011;41623;46.104;19.656;2023-03-01T06:39:23;5.43;;;3.92;;
55718;SDS011;41623;46.104;19.656;2023-03-01T06:41:49;10.98;;;6.10;;
55718;SDS011;41623;46.104;19.656;2023-03-01T06:44:15;8.55;;;4.60;;
55718;SDS011;41623;46.104;19.656;2023-03-01T06:46:41;10.55;;;4.97;;
55718;SDS011;41623;46.104;19.656;2023-03-01T06:49:07;11.60;;;5.03;;
55718;SDS011;41623;46.104;19.656;2023-03-01T06:51:35;8.13;;;4.63;;
55718;SDS011;41623;46.104;19.656;2023-03-01T06:54:01;9.90;;;4.15;;
55718;SDS011;41623;46.104;19.656;2023-03-01T06:56:27;9.18;;;4.95;;
55718;SDS011;41623;46.104;19.656;2023-03-01T06:58:53;11.45;;;4.35;;
55718;SDS011;41623;46.104;19.656;2023-03-01T07:01:19;6.65;;;3.97;;
55718;SDS011;41623;46.104;19.656;2023-03-01T07:03:45;8.48;;;4.60;;
55718;SDS011;41623;46.104;19.656;2023-03-01T07:06:11;11.63;;;5.03;;
55718;SDS011;41623;46.104;19.656;2023-03-01T07:08:37;5.90;;;4.88;;
55718;SDS011;41623;46.104;19.656;2023-03-01T07:11:04;10.07;;;5.32;;
55718;SDS011;41623;46.104;19.656;2023-03-01T07:13:30;11.75;;;5.63;;
55718;SDS011;41623;46.104;19.656;2023-03-01T07:15:57;10.13;;;4.78;;
55718;SDS011;41623;46.104;19.656;2023-03-01T07:18:23;11.02;;;4.95;;
55718;SDS011;41623;46.104;19.656;2023-03-01T07:20:49;7.70;;;4.53;;
55718;SDS011;41623;46.104;19.656;2023-03-01T07:23:15;10.82;;;3.88;;
55718;SDS011;41623;46.104;19.656;2023-03-01T07:25:41;3.72;;;2.67;;
55718;SDS011;41623;46.104;19.656;2023-03-01T07:28:07;10.38;;;5.47;;
55718;SDS011;41623;46.104;19.656;2023-03-01T07:30:33;9.15;;;4.63;;
55718;SDS011;41623;46.104;19.656;2023-03-01T07:32:59;9.10;;;4.43;;
55718;SDS011;41623;46.104;19.656;2023-03-01T07:35:25;9.57;;;4.10;;
55718;SDS011;41623;46.104;19.656;2023-03-01T07:37:52;8.73;;;3.78;;
55718;SDS011;41623;46.104;19.656;2023-03-01T07:40:18;3.33;;;2.60;;
55718;SDS011;41623;46.104;19.656;2023-03-01T07:42:44;4.68;;;3.38;;
55718;SDS011;41623;46.104;19.656;2023-03-01T07:45:10;10.32;;;4.20;;
55718;SDS011;41623;46.104;19.656;2023-03-01T07:47:36;4.45;;;2.72;;
55718;SDS011;41623;46.104;19.656;2023-03-01T07:50:03;6.10;;;3.75;;
55718;SDS011;41623;46.104;19.656;2023-03-01T07:52:30;5.90;;;3.78;;
55718;SDS011;41623;46.104;19.656;2023-03-01T07:54:56;4.90;;;3.28;;
55718;SDS011;41623;46.104;19.656;2023-03-01T07:57:22;6.50;;;3.88;;
55718;SDS011;41623;46.104;19.656;2023-03-01T07:59:48;3.88;;;2.83;;
55718;SDS011;41623;46.104;19.656;2023-03-01T08:02:14;3.17;;;2.47;;
55718;SDS011;41623;46.104;19.656;2023-03-01T08:04:41;7.35;;;3.90;;
55718;SDS011;41623;46.104;19.656;2023-03-01T08:07:07;8.70;;;3.88;;
55718;SDS011;41623;46.104;19.656;2023-03-01T08:09:34;5.15;;;2.17;;
55718;SDS011;41623;46.104;19.656;2023-03-01T08:12:01;12.45;;;3.47;;
55718;SDS011;41623;46.104;19.656;2023-03-01T08:14:29;5.18;;;2.83;;
55718;SDS011;41623;46.104;19.656;2023-03-01T08:16:55;7.05;;;4.10;;
55718;SDS011;41623;46.104;19.656;2023-03-01T08:19:21;6.13;;;3.70;;
55718;SDS011;41623;46.104;19.656;2023-03-01T08:21:47;3.83;;;3.40;;
55718;SDS011;41623;46.104;19.656;2023-03-01T08:24:13;9.57;;;3.95;;
55718;SDS011;41623;46.104;19.656;2023-03-01T08:26:39;5.07;;;3.53;;
55718;SDS011;41623;46.104;19.656;2023-03-01T08:29:05;4.97;;;3.50;;
55718;SDS011;41623;46.104;19.656;2023-03-01T08:31:33;9.45;;;5.07;;
55718;SDS011;41623;46.104;19.656;2023-03-01T08:34:01;5.60;;;3.03;;
55718;SDS011;41623;46.104;19.656;2023-03-01T08:36:28;9.20;;;4.07;;
55718;SDS011;41623;46.104;19.656;2023-03-01T08:38:55;4.00;;;2.25;;
55718;SDS011;41623;46.104;19.656;2023-03-01T08:41:21;7.90;;;3.15;;
55718;SDS011;41623;46.104;19.656;2023-03-01T08:43:47;8.73;;;3.70;;
55718;SDS011;41623;46.104;19.656;2023-03-01T08:46:13;9.43;;;3.50;;
55718;SDS011;41623;46.104;19.656;2023-03-01T08:48:39;7.18;;;3.80;;
55718;SDS011;41623;46.104;19.656;2023-03-01T08:51:17;4.80;;;2.97;;
55718;SDS011;41623;46.104;19.656;2023-03-01T08:53:44;8.40;;;4.25;;
55718;SDS011;41623;46.104;19.656;2023-03-01T08:56:10;7.90;;;3.65;;
55718;SDS011;41623;46.104;19.656;2023-03-01T08:58:36;6.32;;;3.05;;
55718;SDS011;41623;46.104;19.656;2023-03-01T09:01:10;5.30;;;2.75;;
55718;SDS011;41623;46.104;19.656;2023-03-01T09:03:37;5.32;;;2.58;;
55718;SDS011;41623;46.104;19.656;2023-03-01T09:06:03;7.57;;;3.50;;
55718;SDS011;41623;46.104;19.656;2023-03-01T09:08:30;7.47;;;3.25;;
55718;SDS011;41623;46.104;19.656;2023-03-01T09:10:56;3.42;;;2.55;;
55718;SDS011;41623;46.104;19.656;2023-03-01T09:13:22;4.60;;;2.95;;
55718;SDS011;41623;46.104;19.656;2023-03-01T09:15:50;8.52;;;4.43;;
55718;SDS011;41623;46.104;19.656;2023-03-01T09:18:16;5.43;;;3.63;;
55718;SDS011;41623;46.104;19.656;2023-03-01T09:20:42;3.35;;;2.22;;
55718;SDS011;41623;46.104;19.656;2023-03-01T09:23:08;5.75;;;3.30;;
55718;SDS011;41623;46.104;19.656;2023-03-01T09:25:34;3.45;;;2.33;;
55718;SDS011;41623;46.104;19.656;2023-03-01T09:28:00;9.95;;;3.55;;
55718;SDS011;41623;46.104;19.656;2023-03-01T09:30:26;7.75;;;4.00;;
55718;SDS011;41623;46.104;19.656;2023-03-01T09:32:52;9.15;;;3.90;;
55718;SDS011;41623;46.104;19.656;2023-03-01T09:35:18;8.30;;;3.92;;
55718;SDS011;41623;46.104;19.656;2023-03-01T09:37:45;2.85;;;2.33;;
55718;SDS011;41623;46.104;19.656;2023-03-01T09:40:12;8.23;;;4.22;;
55718;SDS011;41623;46.104;19.656;2023-03-01T09:42:45;3.22;;;2.05;;
55718;SDS011;41623;46.104;19.656;2023-03-01T09:45:15;4.18;;;2.63;;
55718;SDS011;41623;46.104;19.656;2023-03-01T09:47:45;8.77;;;4.53;;
55718;SDS011;41623;46.104;19.656;2023-03-01T09:50:18;5.20;;;3.95;;
55718;SDS011;41623;46.104;19.656;2023-03-01T09:52:53;2.70;;;2.42;;
55718;SDS011;41623;46.104;19.656;2023-03-01T09:55:29;8.88;;;4.72;;
55718;SDS011;41623;46.104;19.656;2023-03-01T09:57:59;10.52;;;3.75;;
55718;SDS011;41623;46.104;19.656;2023-03-01T10:03:06;5.70;;;3.55;;
55718;SDS011;41623;46.104;19.656;2023-03-01T10:10:47;4.13;;;2.83;;
55718;SDS011;41623;46.104;19.656;2023-03-01T10:15:56;9.70;;;5.57;;
55718;SDS011;41623;46.104;19.656;2023-03-01T10:18:27;15.77;;;5.38;;
55718;SDS011;41623;46.104;19.656;2023-03-01T10:21:16;9.25;;;4.40;;
55718;SDS011;41623;46.104;19.656;2023-03-01T10:23:41;8.35;;;4.97;;
55718;SDS011;41623;46.104;19.656;2023-03-01T10:31:19;7.07;;;3.95;;
55718;SDS011;41623;46.104;19.656;2023-03-01T10:33:47;10.75;;;5.10;;
55718;SDS011;41623;46.104;19.656;2023-03-01T10:36:16;7.57;;;3.97;;
55718;SDS011;41623;46.104;19.656;2023-03-01T10:38:50;10.55;;;3.78;;
55718;SDS011;41623;46.104;19.656;2023-03-01T10:41:18;8.27;;;4.53;;
55718;SDS011;41623;46.104;19.656;2023-03-01T10:43:46;9.02;;;3.88;;
55718;SDS011;41623;46.104;19.656;2023-03-01T10:46:22;9.23;;;4.35;;
55718;SDS011;41623;46.104;19.656;2023-03-01T10:51:34;7.43;;;3.35;;
55718;SDS011;41623;46.104;19.656;2023-03-01T10:54:00;6.03;;;4.13;;
55718;SDS011;41623;46.104;19.656;2023-03-01T10:56:26;6.93;;;3.65;;
55718;SDS011;41623;46.104;19.656;2023-03-01T10:59:05;4.00;;;3.45;;
55718;SDS011;41623;46.104;19.656;2023-03-01T11:01:34;8.40;;;4.53;;
55718;SDS011;41623;46.104;19.656;2023-03-01T11:06:36;16.17;;;5.72;;
55718;SDS011;41623;46.104;19.656;2023-03-01T11:09:19;6.63;;;4.47;;
55718;SDS011;41623;46.104;19.656;2023-03-01T11:11:45;6.90;;;4.32;;
55718;SDS011;41623;46.104;19.656;2023-03-01T11:14:21;8.35;;;3.63;;
55718;SDS011;41623;46.104;19.656;2023-03-01T11:16:48;9.93;;;4.00;;
55718;SDS011;41623;46.104;19.656;2023-03-01T11:19:19;5.22;;;3.35;;
55718;SDS011;41623;46.104;19.656;2023-03-01T11:24:20;12.68;;;5.30;;
55718;SDS011;41623;46.104;19.656;2023-03-01T11:26:51;8.02;;;4.55;;
55718;SDS011;41623;46.104;19.656;2023-03-01T11:29:21;8.18;;;4.30;;
55718;SDS011;41623;46.104;19.656;2023-03-01T11:31:51;9.63;;;4.90;;
55718;SDS011;41623;46.104;19.656;2023-03-01T11:34:23;5.50;;;3.47;;
55718;SDS011;41623;46.104;19.656;2023-03-01T11:36:54;4.00;;;2.20;;
55718;SDS011;41623;46.104;19.656;2023-03-01T11:41:51;9.73;;;3.88;;
55718;SDS011;41623;46.104;19.656;2023-03-01T11:44:23;7.95;;;3.95;;
55718;SDS011;41623;46.104;19.656;2023-03-01T11:47:12;9.23;;;4.63;;
55718;SDS011;41623;46.104;19.656;2023-03-01T11:54:40;6.18;;;3.92;;
55718;SDS011;41623;46.104;19.656;2023-03-01T11:57:27;8.98;;;3.08;;
55718;SDS011;41623;46.104;19.656;2023-03-01T12:00:11;10.82;;;3.63;;
55718;SDS011;41623;46.104;19.656;2023-03-01T12:22:49;15.32;;;4.90;;
55718;SDS011;41623;46.104;19.656;2023-03-01T12:30:23;5.30;;;3.55;;
55718;SDS011;41623;46.104;19.656;2023-03-01T12:50:21;5.38;;;2.88;;
55718;SDS011;41623;46.104;19.656;2023-03-01T12:55:20;3.92;;;2.60;;
55718;SDS011;41623;46.104;19.656;2023-03-01T12:57:54;6.55;;;2.97;;
55718;SDS011;41623;46.104;19.656;2023-03-01T13:05:29;9.07;;;4.00;;
55718;SDS011;41623;46.104;19.656;2023-03-01T13:11:11;8.85;;;4.22;;
55718;SDS011;41623;46.104;19.656;2023-03-01T13:13:20;4.97;;;3.30;;
55718;SDS011;41623;46.104;19.656;2023-03-01T13:15:46;9.35;;;4.30;;
55718;SDS011;41623;46.104;19.656;2023-03-01T13:20:47;8.32;;;4.18;;
55718;SDS011;41623;46.104;19.656;2023-03-01T13:39:26;5.53;;;2.90;;
55718;SDS011;41623;46.104;19.656;2023-03-01T13:41:56;6.20;;;3.33;;
55718;SDS011;41623;46.104;19.656;2023-03-01T13:46:49;7.78;;;3.38;;
55718;SDS011;41623;46.104;19.656;2023-03-01T13:49:16;4.95;;;2.22;;
55718;SDS011;41623;46.104;19.656;2023-03-01T13:51:47;5.60;;;3.42;;
55718;SDS011;41623;46.104;19.656;2023-03-01T13:54:14;10.13;;;4.03;;
55718;SDS011;41623;46.104;19.656;2023-03-01T13:56:41;3.28;;;2.60;;
55718;SDS011;41623;46.104;19.656;2023-03-01T13:59:17;8.05;;;3.60;;
55718;SDS011;41623;46.104;19.656;2023-03-01T14:01:44;6.35;;;3.08;;
55718;SDS011;41623;46.104;19.656;2023-03-01T14:04:23;4.72;;;3.20;;
55718;SDS011;41623;46.104;19.656;2023-03-01T14:06:50;9.77;;;3.92;;
55718;SDS011;41623;46.104;19.656;2023-03-01T14:09:20;12.90;;;4.43;;
55718;SDS011;41623;46.104;19.656;2023-03-01T14:19:26;6.53;;;3.75;;
55718;SDS011;41623;46.104;19.656;2023-03-01T14:24:38;4.75;;;4.05;;
55718;SDS011;41623;46.104;19.656;2023-03-01T14:27:09;4.25;;;3.47;;
55718;SDS011;41623;46.104;19.656;2023-03-01T14:29:37;15.73;;;5.60;;
55718;SDS011;41623;46.104;19.656;2023-03-01T14:32:10;7.32;;;2.80;;
55718;SDS011;41623;46.104;19.656;2023-03-01T14:34:38;10.45;;;4.63;;
55718;SDS011;41623;46.104;19.656;2023-03-01T14:39:52;10.75;;;5.30;;
55718;SDS011;41623;46.104;19.656;2023-03-01T14:42:19;13.07;;;4.70;;
55718;SDS011;41623;46.104;19.656;2023-03-01T14:44:47;14.82;;;6.70;;
55718;SDS011;41623;46.104;19.656;2023-03-01T14:47:15;7.30;;;4.50;;
55718;SDS011;41623;46.104;19.656;2023-03-01T14:49:42;14.30;;;4.55;;
55718;SDS011;41623;46.104;19.656;2023-03-01T14:52:19;16.30;;;5.45;;
55718;SDS011;41623;46.104;19.656;2023-03-01T14:54:47;6.88;;;3.67;;
55718;SDS011;41623;46.104;19.656;2023-03-01T14:57:24;9.80;;;5.68;;
55718;SDS011;41623;46.104;19.656;2023-03-01T14:59:51;11.02;;;4.68;;
55718;SDS011;41623;46.104;19.656;2023-03-01T15:02:20;11.20;;;4.88;;
55718;SDS011;41623;46.104;19.656;2023-03-01T15:04:47;16.60;;;3.97;;
55718;SDS011;41623;46.104;19.656;2023-03-01T15:07:14;10.88;;;5.97;;
55718;SDS011;41623;46.104;19.656;2023-03-01T15:09:40;10.18;;;4.88;;
55718;SDS011;41623;46.104;19.656;2023-03-01T15:14:51;7.25;;;3.33;;
55718;SDS011;41623;46.104;19.656;2023-03-01T15:17:30;6.00;;;3.45;;
55718;SDS011;41623;46.104;19.656;2023-03-01T15:19:57;6.80;;;4.78;;
55718;SDS011;41623;46.104;19.656;2023-03-01T15:22:24;7.10;;;4.80;;
55718;SDS011;41623;46.104;19.656;2023-03-01T15:24:51;8.27;;;5.03;;
55718;SDS011;41623;46.104;19.656;2023-03-01T15:27:18;9.80;;;4.47;;
55718;SDS011;41623;46.104;19.656;2023-03-01T15:30:02;10.00;;;4.22;;
55718;SDS011;41623;46.104;19.656;2023-03-01T15:34:55;4.57;;;3.13;;
55718;SDS011;41623;46.104;19.656;2023-03-01T15:40:26;8.07;;;5.20;;
55718;SDS011;41623;46.104;19.656;2023-03-01T15:42:59;12.88;;;4.30;;
55718;SDS011;41623;46.104;19.656;2023-03-01T15:45:26;7.85;;;4.88;;
55718;SDS011;41623;46.104;19.656;2023-03-01T15:47:54;14.30;;;5.10;;
55718;SDS011;41623;46.104;19.656;2023-03-01T15:50:40;11.55;;;4.75;;
55718;SDS011;41623;46.104;19.656;2023-03-01T15:53:11;8.20;;;4.97;;
55718;SDS011;41623;46.104;19.656;2023-03-01T15:55:39;11.95;;;4.40;;
55718;SDS011;41623;46.104;19.656;2023-03-01T15:58:06;13.10;;;5.85;;
55718;SDS011;41623;46.104;19.656;2023-03-01T16:00:35;14.70;;;6.70;;
55718;SDS011;41623;46.104;19.656;2023-03-01T16:03:01;15.63;;;5.43;;
55718;SDS011;41623;46.104;19.656;2023-03-01T16:05:28;19.00;;;6.38;;
55718;SDS011;41623;46.104;19.656;2023-03-01T16:07:55;11.98;;;6.03;;
55718;SDS011;41623;46.104;19.656;2023-03-01T16:10:21;13.80;;;8.13;;
55718;SDS011;41623;46.104;19.656;2023-03-01T16:12:48;14.57;;;6.78;;
55718;SDS011;41623;46.104;19.656;2023-03-01T16:15:18;12.93;;;5.57;;
55718;SDS011;41623;46.104;19.656;2023-03-01T16:17:45;11.02;;;5.45;;
55718;SDS011;41623;46.104;19.656;2023-03-01T16:20:11;13.45;;;6.18;;
55718;SDS011;41623;46.104;19.656;2023-03-01T16:22:40;7.68;;;5.35;;
55718;SDS011;41623;46.104;19.656;2023-03-01T16:25:06;11.07;;;6.00;;
55718;SDS011;41623;46.104;19.656;2023-03-01T16:27:33;15.55;;;5.85;;
55718;SDS011;41623;46.104;19.656;2023-03-01T16:29:59;12.48;;;6.35;;
55718;SDS011;41623;46.104;19.656;2023-03-01T16:32:25;9.70;;;6.63;;
55718;SDS011;41623;46.104;19.656;2023-03-01T16:34:51;11.40;;;5.68;;
55718;SDS011;41623;46.104;19.656;2023-03-01T16:37:17;13.77;;;6.65;;
55718;SDS011;41623;46.104;19.656;2023-03-01T16:39:44;17.08;;;6.32;;
55718;SDS011;41623;46.104;19.656;2023-03-01T16:42:10;7.63;;;5.22;;
55718;SDS011;41623;46.104;19.656;2023-03-01T16:44:36;16.35;;;7.15;;
55718;SDS011;41623;46.104;19.656;2023-03-01T16:47:02;16.83;;;6.95;;
55718;SDS011;41623;46.104;19.656;2023-03-01T16:49:28;12.23;;;5.78;;
55718;SDS011;41623;46.104;19.656;2023-03-01T16:51:54;20.40;;;7.20;;
55718;SDS011;41623;46.104;19.656;2023-03-01T16:54:20;14.43;;;6.82;;